createdAt,value
2022-10-29T00:01:00.627Z,99509.41
2022-10-29T00:03:38.421Z,99502.38
2022-10-29T00:06:09.620Z,99507.56
2022-10-29T00:08:38.319Z,99501.44
2022-10-29T00:11:09.430Z,99527.72
2022-10-29T00:13:36.676Z,99491.66
2022-10-29T00:16:11.965Z,99493.44
2022-10-29T00:18:40.131Z,99492.50
2022-10-29T00:21:10.302Z,99487.56
2022-10-29T00:23:37.282Z,99493.66
2022-10-29T00:26:04.620Z,99490.41
2022-10-29T00:28:32.741Z,99481.47
2022-10-29T00:31:14.290Z,99483.53
2022-10-29T00:33:41.598Z,99489.63
2022-10-29T00:36:15.364Z,99486.91
2022-10-29T00:38:42.952Z,99473.47
2022-10-29T00:41:13.720Z,99479.63
2022-10-29T00:43:43.777Z,99473.53
2022-10-29T00:46:14.950Z,99458.59
2022-10-29T00:48:47.306Z,99474.44
2022-10-29T00:51:16.321Z,99465.66
2022-10-29T00:53:49.191Z,99466.66
2022-10-29T00:56:16.812Z,99479.16
2022-10-29T00:58:44.662Z,99451.78
2022-10-29T01:01:11.605Z,99465.16
2022-10-29T01:03:39.633Z,99466.81
2022-10-29T01:06:07.739Z,99452.00
2022-10-29T01:08:34.762Z,99458.13
2022-10-29T01:11:22.156Z,99467.72
2022-10-29T01:14:15.267Z,99443.91
2022-10-29T01:17:17.745Z,99446.78
2022-10-29T01:20:22.518Z,99443.28
2022-10-29T01:22:58.621Z,99425.88
2022-10-29T01:25:53.299Z,99423.13
2022-10-29T01:28:48.228Z,99415.13
2022-10-29T01:31:41.003Z,99414.34
2022-10-29T01:34:27.723Z,99425.69
2022-10-29T01:37:02.193Z,99417.19
2022-10-29T01:39:44.675Z,99411.09
2022-10-29T01:42:17.581Z,99421.72
2022-10-29T01:45:08.148Z,99413.81
2022-10-29T01:47:41.851Z,99410.31
2022-10-29T01:50:14.012Z,99408.50
2022-10-29T01:52:41.626Z,99414.53
2022-10-29T01:55:08.989Z,99404.72
2022-10-29T01:57:39.803Z,99403.88
2022-10-29T02:00:12.977Z,99397.78
2022-10-29T02:02:51.077Z,99398.72
2022-10-29T02:05:27.933Z,99404.66
2022-10-29T02:08:03.789Z,99394.09
2022-10-29T02:10:51.469Z,99391.25
2022-10-29T02:13:27.683Z,99388.59
2022-10-29T02:15:56.848Z,99400.81
2022-10-29T02:18:23.791Z,99385.03
2022-10-29T02:20:50.792Z,99391.97
2022-10-29T02:23:17.975Z,99400.59
2022-10-29T02:25:44.949Z,99389.97
2022-10-29T02:28:11.907Z,99378.47
2022-10-29T02:30:39.066Z,99410.28
2022-10-29T02:33:05.909Z,99395.19
2022-10-29T02:35:32.725Z,99404.13
2022-10-29T02:37:59.740Z,99410.47
2022-10-29T02:40:26.584Z,99391.34
2022-10-29T02:42:53.629Z,99393.97
2022-10-29T02:45:20.805Z,99383.47
2022-10-29T02:47:47.614Z,99359.59
2022-10-29T02:50:14.542Z,99370.09
2022-10-29T02:52:41.601Z,99373.47
2022-10-29T02:55:08.918Z,99385.03
2022-10-29T02:57:35.701Z,99376.44
2022-10-29T03:00:02.754Z,99359.78
2022-10-29T03:02:29.668Z,99350.88
2022-10-29T03:04:56.625Z,99346.44
2022-10-29T03:07:23.648Z,99355.00
2022-10-29T03:09:50.479Z,99359.31
2022-10-29T03:12:17.243Z,99350.25
2022-10-29T03:14:44.264Z,99351.88
2022-10-29T03:17:11.086Z,99351.66
2022-10-29T03:19:37.882Z,99348.81
2022-10-29T03:22:04.872Z,99349.53
2022-10-29T03:24:31.668Z,99337.66
2022-10-29T03:26:59.506Z,99350.53
2022-10-29T03:29:26.461Z,99328.34
2022-10-29T03:31:53.327Z,99345.00
2022-10-29T03:34:20.129Z,99338.66
2022-10-29T03:36:47.190Z,99332.94
2022-10-29T03:39:14.055Z,99341.38
2022-10-29T03:41:40.891Z,99328.84
2022-10-29T03:44:07.936Z,99313.81
2022-10-29T03:46:34.899Z,99321.75
2022-10-29T03:49:01.774Z,99323.53
2022-10-29T03:51:28.835Z,99351.81
2022-10-29T03:53:55.672Z,99338.63
2022-10-29T03:56:22.744Z,99321.84
2022-10-29T03:58:49.553Z,99319.09
2022-10-29T04:01:16.658Z,99326.06
2022-10-29T04:03:44.139Z,99327.91
2022-10-29T04:06:14.934Z,99328.78
2022-10-29T04:08:42.409Z,99326.91
2022-10-29T04:11:12.516Z,99321.69
2022-10-29T04:13:40.025Z,99326.75
2022-10-29T04:16:07.397Z,99318.81
2022-10-29T04:18:34.302Z,99319.88
2022-10-29T04:29:24.165Z,99314.03
2022-10-29T04:31:51.164Z,99317.78
2022-10-29T04:34:18.306Z,99313.97
2022-10-29T04:36:45.573Z,99318.41
2022-10-29T04:39:12.605Z,99311.25
2022-10-29T04:41:39.602Z,99320.88
2022-10-29T04:44:06.472Z,99320.75
2022-10-29T04:46:33.381Z,99320.81
2022-10-29T04:49:01.007Z,99339.28
2022-10-29T04:51:27.954Z,99317.94
2022-10-29T04:53:54.938Z,99289.69
2022-10-29T04:56:21.812Z,99307.34
2022-10-29T04:58:52.302Z,99302.91
2022-10-29T05:01:19.516Z,99302.91
2022-10-29T05:03:46.723Z,99301.28
2022-10-29T05:06:13.527Z,99321.50
2022-10-29T05:08:40.565Z,99307.53
2022-10-29T05:11:07.944Z,99311.09
2022-10-29T05:13:35.263Z,99311.16
2022-10-29T05:16:02.270Z,99312.16
2022-10-29T05:18:29.334Z,99306.88
2022-10-29T05:20:57.129Z,99304.22
2022-10-29T05:23:24.395Z,99301.75
2022-10-29T05:25:52.533Z,99295.59
2022-10-29T05:28:22.265Z,99301.75
2022-10-29T05:30:50.776Z,99279.63
2022-10-29T05:33:19.987Z,99281.28
2022-10-29T05:35:47.532Z,99286.47
2022-10-29T05:38:15.239Z,99289.97
2022-10-29T05:40:45.208Z,99296.00
2022-10-29T05:43:13.629Z,99311.09
2022-10-29T05:45:40.762Z,99330.41
2022-10-29T05:48:09.937Z,99297.63
2022-10-29T05:50:36.994Z,99302.06
2022-10-29T05:53:06.400Z,99306.34
2022-10-29T05:55:35.109Z,99312.50
2022-10-29T05:58:04.937Z,99309.84
2022-10-29T06:00:35.205Z,99305.34
2022-10-29T06:03:02.491Z,99312.91
2022-10-29T06:05:29.483Z,99322.25
2022-10-29T06:07:58.100Z,99318.38
2022-10-29T06:10:26.940Z,99333.09
2022-10-29T06:12:54.037Z,99309.94
2022-10-29T06:15:21.359Z,99324.75
2022-10-29T06:17:48.492Z,99323.06
2022-10-29T06:20:17.617Z,99314.16
2022-10-29T06:22:44.478Z,99307.69
2022-10-29T06:25:11.338Z,99315.72
2022-10-29T06:27:39.081Z,99318.91
2022-10-29T06:30:06.730Z,99325.69
2022-10-29T06:32:33.677Z,99323.56
2022-10-29T06:35:00.455Z,99325.13
2022-10-29T06:37:27.520Z,99335.56
2022-10-29T06:39:54.300Z,99332.53
2022-10-29T06:42:21.299Z,99353.03
2022-10-29T06:44:48.083Z,99331.97
2022-10-29T06:47:15.095Z,99343.91
2022-10-29T06:49:41.874Z,99320.00
2022-10-29T06:52:08.860Z,99329.66
2022-10-29T06:54:35.677Z,99337.22
2022-10-29T06:57:03.786Z,99318.59
2022-10-29T06:59:30.623Z,99326.44
2022-10-29T07:01:57.625Z,99326.28
2022-10-29T07:04:24.540Z,99314.19
2022-10-29T07:06:51.328Z,99311.00
2022-10-29T07:09:18.460Z,99326.22
2022-10-29T07:11:45.342Z,99326.50
2022-10-29T07:14:12.375Z,99329.59
2022-10-29T07:16:39.145Z,99305.63
2022-10-29T07:19:06.281Z,99306.31
2022-10-29T07:21:33.104Z,99335.41
2022-10-29T07:23:59.900Z,99310.97
2022-10-29T07:26:26.979Z,99306.91
2022-10-29T07:28:59.430Z,99320.00
2022-10-29T07:31:26.567Z,99311.66
2022-10-29T07:33:53.436Z,99308.31
2022-10-29T07:36:20.441Z,99315.53
2022-10-29T07:38:47.368Z,99319.25
2022-10-29T07:41:14.737Z,99314.13
2022-10-29T07:43:41.728Z,99320.34
2022-10-29T07:46:08.768Z,99332.44
2022-10-29T07:48:35.629Z,99323.41
2022-10-29T07:51:02.663Z,99322.53
2022-10-29T07:53:31.499Z,99319.31
2022-10-29T07:55:59.371Z,99323.03
2022-10-29T07:58:26.316Z,99312.50
2022-10-29T08:00:54.144Z,99315.53
2022-10-29T08:03:21.491Z,99315.47
2022-10-29T08:05:56.406Z,99303.66
2022-10-29T08:08:24.332Z,99312.31
2022-10-29T08:10:51.291Z,99324.47
2022-10-29T08:13:18.080Z,99317.13
2022-10-29T08:15:48.182Z,99319.22
2022-10-29T08:18:17.306Z,99329.34
2022-10-29T08:20:44.916Z,99326.44
2022-10-29T08:23:12.888Z,99329.72
2022-10-29T08:25:43.081Z,99327.22
2022-10-29T08:28:13.109Z,99335.47
2022-10-29T08:30:40.892Z,99337.34
2022-10-29T08:33:08.988Z,99337.63
2022-10-29T08:35:35.838Z,99339.44
2022-10-29T08:38:02.974Z,99334.88
2022-10-29T08:41:02.552Z,99328.00
2022-10-29T08:43:47.602Z,99329.34
2022-10-29T08:46:24.750Z,99319.56
2022-10-29T08:49:01.394Z,99329.47
2022-10-29T08:51:33.894Z,99321.53
2022-10-29T08:54:29.356Z,99323.63
2022-10-29T08:56:55.010Z,99328.47
2022-10-29T08:59:24.773Z,99342.66
2022-10-29T09:01:55.273Z,99329.72
2022-10-29T09:04:33.642Z,99339.19
2022-10-29T09:07:28.775Z,99330.97
2022-10-29T09:10:25.223Z,99338.03
2022-10-29T09:13:21.861Z,99336.66
2022-10-29T09:15:58.061Z,99328.38
2022-10-29T09:19:03.410Z,99329.34
2022-10-29T09:21:53.055Z,99329.41
2022-10-29T09:24:30.558Z,99338.78
2022-10-29T09:27:10.915Z,99341.47
2022-10-29T09:29:47.212Z,99337.34
2022-10-29T09:32:47.745Z,99331.78
2022-10-29T09:35:18.965Z,99334.69
2022-10-29T09:37:49.930Z,99333.94
2022-10-29T09:40:40.663Z,99335.56
2022-10-29T09:43:32.295Z,99323.16
2022-10-29T09:46:09.332Z,99327.13
2022-10-29T09:48:50.766Z,99331.16
2022-10-29T09:51:41.711Z,99329.34
2022-10-29T09:54:09.406Z,99317.41
2022-10-29T09:56:41.747Z,99336.28
2022-10-29T09:59:29.776Z,99320.16
2022-10-29T10:01:58.177Z,99326.53
2022-10-29T10:04:32.372Z,99318.47
2022-10-29T10:07:05.265Z,99316.41
2022-10-29T10:09:52.898Z,99316.69
2022-10-29T10:12:22.245Z,99322.28
2022-10-29T10:14:49.346Z,99329.44
2022-10-29T10:17:16.493Z,99321.50
2022-10-29T10:19:46.245Z,99321.91
2022-10-29T10:22:22.123Z,99327.38
2022-10-29T10:24:49.115Z,99320.84
2022-10-29T10:27:18.890Z,99315.28
2022-10-29T10:30:04.029Z,99311.16
2022-10-29T10:32:31.810Z,99314.41
2022-10-29T10:34:58.607Z,99305.69
2022-10-29T10:37:25.718Z,99313.66
2022-10-29T10:39:58.423Z,99309.00
2022-10-29T10:42:27.516Z,99308.97
2022-10-29T10:45:02.160Z,99298.38
2022-10-29T10:47:36.620Z,99313.22
2022-10-29T10:50:29.705Z,99284.09
2022-10-29T10:53:04.570Z,99276.63
2022-10-29T10:55:38.794Z,99285.31
2022-10-29T10:58:08.267Z,99279.44
2022-10-29T11:00:45.867Z,99289.22
2022-10-29T11:03:20.594Z,99290.84
2022-10-29T11:05:56.962Z,99276.97
2022-10-29T11:08:30.805Z,99269.78
2022-10-29T11:11:05.076Z,99260.94
2022-10-29T11:13:34.379Z,99254.44
2022-10-29T11:16:04.001Z,99272.69
2022-10-29T11:18:38.156Z,99247.63
2022-10-29T11:21:22.362Z,99245.38
2022-10-29T11:24:02.428Z,99242.84
2022-10-29T11:26:37.788Z,99239.31
2022-10-29T11:29:22.838Z,99238.06
2022-10-29T11:32:12.483Z,99234.69
2022-10-29T11:34:56.251Z,99243.06
2022-10-29T11:37:40.351Z,99270.00
2022-10-29T11:40:37.683Z,99265.13
2022-10-29T11:43:11.702Z,99272.31
2022-10-29T11:46:01.829Z,99272.22
2022-10-29T11:48:55.909Z,99279.75
2022-10-29T11:51:43.013Z,99271.47
2022-10-29T11:54:09.922Z,99288.19
2022-10-29T11:56:44.194Z,99272.53
2022-10-29T11:59:26.720Z,99279.69
2022-10-29T12:02:04.992Z,99274.84
2022-10-29T12:04:35.057Z,99268.72
2022-10-29T12:07:04.881Z,99256.41
2022-10-29T12:10:03.152Z,99251.03
2022-10-29T12:12:33.500Z,99225.75
2022-10-29T12:15:34.011Z,99219.53
2022-10-29T12:18:12.988Z,99218.44
2022-10-29T12:20:45.470Z,99229.19
2022-10-29T12:23:25.533Z,99233.22
2022-10-29T12:25:59.859Z,99232.56
2022-10-29T12:28:55.223Z,99224.47
2022-10-29T12:31:36.454Z,99236.63
2022-10-29T12:34:14.809Z,99245.72
2022-10-29T12:37:06.175Z,99236.16
2022-10-29T12:39:39.784Z,99236.19
2022-10-29T12:42:27.104Z,99234.16
2022-10-29T12:45:06.616Z,99234.75
2022-10-29T12:47:35.980Z,99227.38
2022-10-29T12:50:03.973Z,99209.75
2022-10-29T12:52:42.889Z,99220.59
2022-10-29T12:55:14.511Z,99229.34
2022-10-29T12:57:41.341Z,99233.72
2022-10-29T13:00:23.934Z,99230.25
2022-10-29T13:02:52.198Z,99219.47
2022-10-29T13:05:36.169Z,99221.72
2022-10-29T13:08:02.921Z,99205.81
2022-10-29T13:10:32.762Z,99211.84
2022-10-29T13:12:59.597Z,99206.13
2022-10-29T13:15:37.560Z,99203.78
2022-10-29T13:18:26.561Z,99196.16
2022-10-29T13:20:55.472Z,99210.06
2022-10-29T13:23:22.392Z,99195.22
2022-10-29T13:25:50.753Z,99211.31
2022-10-29T13:28:17.527Z,99226.56
2022-10-29T13:30:48.462Z,99204.44
2022-10-29T13:33:27.382Z,99206.13
2022-10-29T13:35:54.494Z,99218.94
2022-10-29T13:38:51.903Z,99210.31
2022-10-29T13:41:44.294Z,99206.06
2022-10-29T13:44:19.788Z,99184.59
2022-10-29T13:47:11.934Z,99199.91
2022-10-29T13:49:45.306Z,99205.78
2022-10-29T13:52:17.885Z,99202.63
2022-10-29T13:54:47.695Z,99203.81
2022-10-29T13:57:21.284Z,99205.09
2022-10-29T14:00:01.757Z,99196.38
2022-10-29T14:02:39.576Z,99200.28
2022-10-29T14:05:19.162Z,99197.47
2022-10-29T14:08:03.698Z,99200.75
2022-10-29T14:10:35.689Z,99200.53
2022-10-29T14:13:28.973Z,99192.72
2022-10-29T14:16:07.748Z,99188.59
2022-10-29T14:18:41.708Z,99197.91
2022-10-29T14:21:26.387Z,99197.66
2022-10-29T14:24:05.039Z,99195.13
2022-10-29T14:26:34.814Z,99193.00
2022-10-29T14:29:24.319Z,99177.84
2022-10-29T14:32:07.043Z,99185.81
2022-10-29T14:34:34.233Z,99192.03
2022-10-29T14:37:05.929Z,99192.59
2022-10-29T14:39:57.841Z,99197.03
2022-10-29T14:42:40.437Z,99198.72
2022-10-29T14:45:20.224Z,99208.84
2022-10-29T14:47:58.597Z,99193.41
2022-10-29T14:50:28.512Z,99201.59
2022-10-29T14:53:02.375Z,99201.09
2022-10-29T14:55:40.276Z,99193.66
2022-10-29T14:58:07.062Z,99195.63
2022-10-29T15:00:37.170Z,99201.78
2022-10-29T15:03:07.140Z,99196.75
2022-10-29T15:05:36.591Z,99210.47
2022-10-29T15:08:14.544Z,99202.44
2022-10-29T15:10:59.671Z,99208.44
2022-10-29T15:13:29.520Z,99212.41
2022-10-29T15:16:09.327Z,99206.59
2022-10-29T15:18:37.528Z,99204.78
2022-10-29T15:21:05.724Z,99202.66
2022-10-29T15:23:35.724Z,99207.19
2022-10-29T15:26:08.622Z,99204.72
2022-10-29T15:28:41.172Z,99210.00
2022-10-29T15:31:29.266Z,99207.25
2022-10-29T15:34:03.317Z,99192.63
2022-10-29T15:36:51.303Z,99201.78
2022-10-29T15:39:30.166Z,99214.91
2022-10-29T15:41:59.793Z,99210.38
2022-10-29T15:44:39.864Z,99212.00
2022-10-29T15:47:22.179Z,99198.03
2022-10-29T15:49:49.226Z,99206.38
2022-10-29T15:52:18.177Z,99203.03
2022-10-29T15:54:46.610Z,99195.09
2022-10-29T15:57:15.183Z,99191.25
2022-10-29T15:59:42.265Z,99193.31
2022-10-29T16:02:14.167Z,99200.25
2022-10-29T16:04:41.169Z,99203.03
2022-10-29T16:07:16.745Z,99181.09
2022-10-29T16:09:50.109Z,99194.41
2022-10-29T16:12:17.462Z,99191.06
2022-10-29T16:14:44.395Z,99193.47
2022-10-29T16:17:19.486Z,99191.25
2022-10-29T16:19:47.042Z,99201.13
2022-10-29T16:22:20.276Z,99192.41
2022-10-29T16:24:47.513Z,99185.66
2022-10-29T16:27:17.362Z,99202.94
2022-10-29T16:29:47.081Z,99205.84
2022-10-29T16:32:16.685Z,99198.06
2022-10-29T16:34:44.114Z,99191.13
2022-10-29T16:37:19.045Z,99200.97
2022-10-29T16:39:46.091Z,99196.88
2022-10-29T16:42:32.167Z,99202.19
2022-10-29T16:44:59.308Z,99210.78
2022-10-29T16:47:26.150Z,99207.53
2022-10-29T16:49:53.283Z,99197.00
2022-10-29T16:52:22.409Z,99199.66
2022-10-29T16:54:50.352Z,99198.81
2022-10-29T16:57:17.405Z,99206.03
2022-10-29T16:59:45.453Z,99193.66
2022-10-29T17:02:12.861Z,99194.59
2022-10-29T17:04:40.546Z,99198.28
2022-10-29T17:07:07.622Z,99192.81
2022-10-29T17:09:37.039Z,99201.00
2022-10-29T17:12:04.033Z,99191.50
2022-10-29T17:14:30.872Z,99195.69
2022-10-29T17:16:58.588Z,99198.50
2022-10-29T17:19:25.448Z,99193.34
2022-10-29T17:21:52.561Z,99189.94
2022-10-29T17:24:20.066Z,99200.63
2022-10-29T17:26:46.908Z,99195.47
2022-10-29T17:29:13.912Z,99201.94
2022-10-29T17:31:40.773Z,99203.88
2022-10-29T17:34:07.784Z,99198.50
2022-10-29T17:36:37.055Z,99199.59
2022-10-29T17:39:04.400Z,99189.19
2022-10-29T17:41:31.295Z,99198.19
2022-10-29T17:43:58.761Z,99211.56
2022-10-29T17:46:25.586Z,99215.19
2022-10-29T17:48:56.417Z,99216.31
2022-10-29T17:51:23.766Z,99219.50
2022-10-29T17:53:50.647Z,99213.50
2022-10-29T17:56:17.410Z,99209.75
2022-10-29T17:58:44.476Z,99223.66
2022-10-29T18:01:12.897Z,99220.22
2022-10-29T18:03:40.114Z,99212.34
2022-10-29T18:06:10.832Z,99203.88
2022-10-29T18:08:40.025Z,99203.97
2022-10-29T18:11:14.482Z,99208.25
2022-10-29T18:13:42.823Z,99220.06
2022-10-29T18:16:14.944Z,99215.88
2022-10-29T18:18:54.880Z,99224.00
2022-10-29T18:21:28.909Z,99207.94
2022-10-29T18:23:55.956Z,99222.78
2022-10-29T18:26:24.374Z,99216.78
2022-10-29T18:28:52.767Z,99216.72
2022-10-29T18:31:20.058Z,99216.06
2022-10-29T18:33:47.311Z,99219.38
2022-10-29T18:36:14.684Z,99223.72
2022-10-29T18:38:41.548Z,99217.84
2022-10-29T18:41:09.012Z,99223.00
2022-10-29T18:43:36.034Z,99217.63
2022-10-29T18:46:05.621Z,99228.78
2022-10-29T18:48:38.215Z,99221.00
2022-10-29T18:51:10.479Z,99219.38
2022-10-29T18:53:38.348Z,99222.00
2022-10-29T18:56:10.974Z,99224.66
2022-10-29T18:58:38.778Z,99225.56
2022-10-29T19:01:08.519Z,99217.94
2022-10-29T19:03:36.169Z,99223.00
2022-10-29T19:06:06.054Z,99222.00
2022-10-29T19:08:36.206Z,99234.16
2022-10-29T19:11:04.588Z,99226.50
2022-10-29T19:13:32.137Z,99222.34
2022-10-29T19:16:10.453Z,99217.06
2022-10-29T19:18:39.074Z,99216.50
2022-10-29T19:21:14.244Z,99208.72
2022-10-29T19:23:41.980Z,99217.50
2022-10-29T19:26:17.949Z,99223.75
2022-10-29T19:28:46.761Z,99221.34
2022-10-29T19:31:16.709Z,99226.00
2022-10-29T19:33:47.736Z,99228.78
2022-10-29T19:36:14.786Z,99234.06
2022-10-29T19:38:41.572Z,99234.06
2022-10-29T19:41:08.664Z,99230.72
2022-10-29T19:43:35.518Z,99233.00
2022-10-29T19:46:06.953Z,99228.19
2022-10-29T19:48:33.952Z,99217.06
2022-10-29T19:51:01.378Z,99220.38
2022-10-29T19:53:28.774Z,99226.00
2022-10-29T19:55:56.074Z,99225.00
2022-10-29T19:58:25.943Z,99216.97
2022-10-29T20:00:54.022Z,99223.25
2022-10-29T20:03:21.464Z,99222.19
2022-10-29T20:05:49.348Z,99214.75
2022-10-29T20:08:16.602Z,99225.28
2022-10-29T20:10:43.906Z,99223.25
2022-10-29T20:13:10.803Z,99223.81
2022-10-29T20:15:40.609Z,99230.84
2022-10-29T20:18:07.435Z,99227.41
2022-10-29T20:20:35.260Z,99234.50
2022-10-29T20:23:02.271Z,99242.28
2022-10-29T20:25:29.343Z,99241.31
2022-10-29T20:27:58.066Z,99233.31
2022-10-29T20:30:25.181Z,99237.53
2022-10-29T20:32:51.993Z,99230.59
2022-10-29T20:35:19.294Z,99240.66
2022-10-29T20:37:46.091Z,99234.03
2022-10-29T20:40:13.233Z,99240.25
2022-10-29T20:42:40.606Z,99240.31
2022-10-29T20:45:07.675Z,99240.31
2022-10-29T20:47:34.492Z,99233.72
2022-10-29T20:50:01.562Z,99239.88
2022-10-29T20:52:30.491Z,99239.09
2022-10-29T20:54:57.360Z,99239.94
2022-10-29T20:57:24.396Z,99243.31
2022-10-29T20:59:51.293Z,99250.31
2022-10-29T21:02:18.246Z,99240.72
2022-10-29T21:04:45.864Z,99233.72
2022-10-29T21:07:12.754Z,99231.75
2022-10-29T21:09:39.768Z,99230.81
2022-10-29T21:12:07.171Z,99239.72
2022-10-29T21:14:34.205Z,99241.66
2022-10-29T21:17:01.050Z,99243.59
2022-10-29T21:19:28.322Z,99242.53
2022-10-29T21:21:55.327Z,99233.81
2022-10-29T21:24:22.154Z,99234.50
2022-10-29T21:26:48.965Z,99232.88
2022-10-29T21:29:16.158Z,99233.16
2022-10-29T21:31:42.976Z,99227.50
2022-10-29T21:34:09.800Z,99228.41
2022-10-29T21:36:36.776Z,99222.94
2022-10-29T21:39:03.640Z,99229.00
2022-10-29T21:41:30.469Z,99219.97
2022-10-29T21:43:57.535Z,99226.47
2022-10-29T21:46:24.355Z,99238.75
2022-10-29T21:48:51.179Z,99222.63
2022-10-29T21:51:18.343Z,99232.38
2022-10-29T21:53:45.321Z,99241.38
2022-10-29T21:56:14.473Z,99232.66
2022-10-29T21:58:42.445Z,99229.94
2022-10-29T22:01:11.978Z,99234.31
2022-10-29T22:03:43.312Z,99233.38
2022-10-29T22:06:16.131Z,99230.56
2022-10-29T22:08:44.189Z,99236.16
2022-10-29T22:11:12.697Z,99229.09
2022-10-29T22:13:39.669Z,99232.53
2022-10-29T22:16:07.878Z,99231.78
2022-10-29T22:18:36.031Z,99227.50
2022-10-29T22:21:03.885Z,99227.81
2022-10-29T22:23:30.727Z,99226.22
2022-10-29T22:25:57.798Z,99221.59
2022-10-29T22:28:24.620Z,99224.31
2022-10-29T22:31:01.345Z,99224.66
2022-10-29T22:33:29.428Z,99229.94
2022-10-29T22:35:56.470Z,99227.09
2022-10-29T22:38:23.402Z,99234.28
2022-10-29T22:40:50.381Z,99228.03
2022-10-29T22:43:17.194Z,99223.81
2022-10-29T22:45:46.234Z,99224.53
2022-10-29T22:48:13.326Z,99225.53
2022-10-29T22:50:40.182Z,99226.56
2022-10-29T22:53:06.986Z,99221.41
2022-10-29T22:55:34.233Z,99212.78
2022-10-29T22:58:01.032Z,99203.03
2022-10-29T23:00:27.919Z,99211.66
2022-10-29T23:02:55.118Z,99205.81
2022-10-29T23:05:22.225Z,99210.97
2022-10-29T23:07:48.986Z,99207.91
2022-10-29T23:10:15.978Z,99202.78
2022-10-29T23:12:42.840Z,99204.19
2022-10-29T23:15:09.940Z,99194.56
2022-10-29T23:17:36.964Z,99197.31
2022-10-29T23:20:04.189Z,99186.91
2022-10-29T23:22:30.993Z,99191.34
2022-10-29T23:24:58.054Z,99192.41
2022-10-29T23:27:24.841Z,99190.91
2022-10-29T23:29:51.678Z,99192.88
2022-10-29T23:32:18.694Z,99184.78
2022-10-29T23:34:45.505Z,99196.38
2022-10-29T23:37:12.336Z,99190.22
2022-10-29T23:39:39.342Z,99180.56
2022-10-29T23:42:06.202Z,99186.72
2022-10-29T23:44:33.008Z,99193.72
2022-10-29T23:46:59.990Z,99180.16
2022-10-29T23:49:26.788Z,99182.56
2022-10-29T23:51:53.640Z,99179.34
2022-10-29T23:54:20.601Z,99183.53
2022-10-29T23:56:47.409Z,99190.50
2022-10-29T23:59:14.200Z,99179.44
